createdAt,value
2023-02-09T00:00:06.598Z,102439.66
2023-02-09T00:02:40.728Z,102442.28
2023-02-09T00:05:09.358Z,102432.81
2023-02-09T00:07:36.208Z,102437.47
2023-02-09T00:10:03.774Z,102435.25
2023-02-09T00:12:49.257Z,102428.56
2023-02-09T00:15:16.066Z,102430.44
2023-02-09T00:17:43.018Z,102434.16
2023-02-09T00:20:10.644Z,102425.94
2023-02-09T00:22:37.612Z,102430.13
2023-02-09T00:25:04.622Z,102428.34
2023-02-09T00:27:32.454Z,102429.25
2023-02-09T00:29:59.852Z,102428.59
2023-02-09T00:32:26.781Z,102425.22
2023-02-09T00:34:53.726Z,102422.63
2023-02-09T00:37:20.560Z,102420.00
2023-02-09T00:39:47.454Z,102405.50
2023-02-09T00:42:14.184Z,102409.06
2023-02-09T00:44:41.968Z,102400.66
2023-02-09T00:47:09.654Z,102402.38
2023-02-09T00:49:37.005Z,102403.16
2023-02-09T00:52:04.808Z,102406.53
2023-02-09T00:54:31.673Z,102402.25
2023-02-09T00:57:05.054Z,102398.84
2023-02-09T00:59:35.161Z,102397.06
2023-02-09T01:02:03.290Z,102387.88
2023-02-09T01:04:30.296Z,102391.25
2023-02-09T01:06:57.166Z,102387.00
2023-02-09T01:09:24.468Z,102383.03
2023-02-09T01:11:51.257Z,102378.00
2023-02-09T01:14:18.747Z,102376.16
2023-02-09T01:16:46.050Z,102360.09
2023-02-09T01:19:14.304Z,102361.78
2023-02-09T01:21:41.916Z,102352.44
2023-02-09T01:24:12.252Z,102351.69
2023-02-09T01:26:39.010Z,102351.03
2023-02-09T01:29:05.777Z,102351.97
2023-02-09T01:31:34.837Z,102349.44
2023-02-09T01:34:03.669Z,102340.09
2023-02-09T01:36:31.745Z,102341.91
2023-02-09T01:39:01.124Z,102338.50
2023-02-09T01:41:28.569Z,102341.03
2023-02-09T01:44:14.909Z,102337.75
2023-02-09T01:46:41.708Z,102332.66
2023-02-09T01:49:26.287Z,102330.47
2023-02-09T01:52:07.648Z,102332.22
2023-02-09T01:54:38.315Z,102332.13
2023-02-09T01:57:18.328Z,102322.84
2023-02-09T01:59:50.742Z,102322.78
2023-02-09T02:02:17.665Z,102317.66
2023-02-09T02:04:45.589Z,102314.22
2023-02-09T02:07:21.363Z,102306.59
2023-02-09T02:09:49.358Z,102308.19
2023-02-09T02:12:16.543Z,102308.13
2023-02-09T02:14:43.426Z,102305.63
2023-02-09T02:17:39.452Z,102300.25
2023-02-09T02:20:29.744Z,102305.31
2023-02-09T02:23:19.727Z,102305.16
2023-02-09T02:26:07.072Z,102300.91
2023-02-09T02:28:43.178Z,102300.97
2023-02-09T02:31:38.350Z,102301.41
2023-02-09T02:34:23.702Z,102304.69
2023-02-09T02:37:16.028Z,102298.97
2023-02-09T02:40:24.292Z,102291.31
2023-02-09T02:42:59.740Z,102297.38
2023-02-09T02:45:38.421Z,102294.06
2023-02-09T02:48:29.773Z,102295.09
2023-02-09T02:51:08.553Z,102302.84
2023-02-09T02:53:40.074Z,102305.34
2023-02-09T02:56:28.038Z,102301.66
2023-02-09T02:58:59.570Z,102297.28
2023-02-09T03:01:32.288Z,102304.28
2023-02-09T03:04:01.125Z,102302.63
2023-02-09T03:06:27.950Z,102300.22
2023-02-09T03:08:56.908Z,102305.38
2023-02-09T03:11:28.256Z,102303.69
2023-02-09T03:14:01.026Z,102311.56
2023-02-09T03:16:27.815Z,102312.38
2023-02-09T03:19:16.601Z,102318.38
2023-02-09T03:22:15.354Z,102312.44
2023-02-09T03:24:52.381Z,102320.66
2023-02-09T03:27:21.973Z,102321.44
2023-02-09T03:29:52.978Z,102317.13
2023-02-09T03:32:21.543Z,102327.41
2023-02-09T03:34:49.152Z,102328.16
2023-02-09T03:37:17.631Z,102330.69
2023-02-09T03:39:44.502Z,102327.28
2023-02-09T03:42:11.233Z,102321.22
2023-02-09T03:44:38.297Z,102327.91
2023-02-09T03:47:07.806Z,102336.34
2023-02-09T03:49:39.155Z,102330.88
2023-02-09T03:52:11.174Z,102326.25
2023-02-09T03:54:38.657Z,102319.66
2023-02-09T03:57:06.442Z,102311.03
2023-02-09T03:59:35.726Z,102318.91
2023-02-09T04:02:03.561Z,102314.66
2023-02-09T04:04:30.511Z,102318.41
2023-02-09T04:06:57.726Z,102312.53
2023-02-09T04:09:25.814Z,102310.78
2023-02-09T04:11:53.907Z,102315.09
2023-02-09T04:14:20.733Z,102317.75
2023-02-09T04:16:47.818Z,102323.72
2023-02-09T04:19:15.880Z,102312.75
2023-02-09T04:21:43.029Z,102308.50
2023-02-09T04:24:10.143Z,102310.84
2023-02-09T04:26:36.975Z,102312.59
2023-02-09T04:29:04.321Z,102306.78
2023-02-09T04:31:32.024Z,102323.81
2023-02-09T04:33:58.908Z,102328.88
2023-02-09T04:36:25.718Z,102317.19
2023-02-09T04:38:52.490Z,102324.09
2023-02-09T04:41:19.290Z,102310.53
2023-02-09T04:43:49.098Z,102311.38
2023-02-09T04:46:17.827Z,102310.53
2023-02-09T04:48:44.740Z,102314.03
2023-02-09T04:51:11.786Z,102307.28
2023-02-09T04:53:38.626Z,102303.97
2023-02-09T04:56:06.394Z,102309.03
2023-02-09T04:58:51.625Z,102312.34
2023-02-09T05:01:24.644Z,102315.56
2023-02-09T05:03:52.074Z,102311.41
2023-02-09T05:06:19.450Z,102315.63
2023-02-09T05:08:46.978Z,102316.59
2023-02-09T05:11:13.832Z,102317.25
2023-02-09T05:13:40.878Z,102310.75
2023-02-09T05:16:09.191Z,102309.81
2023-02-09T05:18:36.667Z,102310.63
2023-02-09T05:21:03.655Z,102308.06
2023-02-09T05:23:30.699Z,102305.56
2023-02-09T05:25:57.501Z,102308.88
2023-02-09T05:28:25.303Z,102302.97
2023-02-09T05:30:53.869Z,102307.97
2023-02-09T05:33:27.028Z,102305.56
2023-02-09T05:35:56.071Z,102305.56
2023-02-09T05:38:22.921Z,102301.28
2023-02-09T05:40:50.322Z,102304.56
2023-02-09T05:43:17.764Z,102314.66
2023-02-09T05:45:45.093Z,102309.63
2023-02-09T05:48:11.843Z,102309.59
2023-02-09T05:50:38.592Z,102315.38
2023-02-09T05:53:09.254Z,102304.38
2023-02-09T05:55:44.457Z,102297.56
2023-02-09T05:58:13.965Z,102300.25
2023-02-09T06:00:40.718Z,102302.69
2023-02-09T06:03:07.492Z,102298.78
2023-02-09T06:05:34.324Z,102299.63
2023-02-09T06:08:02.072Z,102297.97
2023-02-09T06:10:28.815Z,102302.25
2023-02-09T06:12:55.576Z,102307.09
2023-02-09T06:15:22.359Z,102303.81
2023-02-09T06:17:49.203Z,102307.19
2023-02-09T06:20:15.982Z,102308.75
2023-02-09T06:22:42.792Z,102310.31
2023-02-09T06:25:09.571Z,102310.09
2023-02-09T06:27:36.898Z,102315.19
2023-02-09T06:30:04.058Z,102316.84
2023-02-09T06:32:31.918Z,102311.09
2023-02-09T06:34:58.848Z,102311.66
2023-02-09T06:37:25.597Z,102323.38
2023-02-09T06:39:52.356Z,102329.06
2023-02-09T06:42:19.072Z,102328.09
2023-02-09T06:44:45.927Z,102332.53
2023-02-09T06:47:12.851Z,102321.75
2023-02-09T06:49:39.599Z,102318.88
2023-02-09T06:52:06.518Z,102327.31
2023-02-09T06:54:33.320Z,102336.56
2023-02-09T06:57:00.242Z,102335.13
2023-02-09T06:59:26.996Z,102330.88
2023-02-09T07:01:55.118Z,102334.97
2023-02-09T07:04:22.271Z,102329.28
2023-02-09T07:06:49.045Z,102330.06
2023-02-09T07:09:15.840Z,102335.16
2023-02-09T07:11:42.675Z,102340.06
2023-02-09T07:14:09.609Z,102335.53
2023-02-09T07:16:36.357Z,102339.25
2023-02-09T07:19:03.351Z,102339.53
2023-02-09T07:21:30.189Z,102331.63
2023-02-09T07:23:57.015Z,102331.88
2023-02-09T07:26:23.796Z,102335.06
2023-02-09T07:28:50.639Z,102329.47
2023-02-09T07:31:17.623Z,102339.63
2023-02-09T07:33:44.882Z,102332.84
2023-02-09T07:36:14.410Z,102340.81
2023-02-09T07:38:42.306Z,102328.19
2023-02-09T07:41:18.221Z,102338.91
2023-02-09T07:43:45.854Z,102346.72
2023-02-09T07:46:15.694Z,102332.16
2023-02-09T07:48:42.469Z,102333.72
2023-02-09T07:51:20.244Z,102330.94
2023-02-09T07:53:47.723Z,102339.22
2023-02-09T07:56:14.567Z,102338.81
2023-02-09T07:58:41.685Z,102338.72
2023-02-09T08:01:11.659Z,102340.38
2023-02-09T08:03:40.168Z,102331.28
2023-02-09T08:06:42.583Z,102333.69
2023-02-09T08:09:12.012Z,102338.72
2023-02-09T08:11:45.760Z,102337.06
2023-02-09T08:14:22.154Z,102340.50
2023-02-09T08:16:52.634Z,102350.03
2023-02-09T08:19:23.808Z,102345.06
2023-02-09T08:21:51.403Z,102340.44
2023-02-09T08:24:20.398Z,102336.03
2023-02-09T08:26:47.350Z,102325.97
2023-02-09T08:29:14.197Z,102336.28
2023-02-09T08:31:41.196Z,102322.41
2023-02-09T08:34:08.181Z,102329.94
2023-02-09T08:36:37.651Z,102331.41
2023-02-09T08:39:05.803Z,102325.22
2023-02-09T08:41:33.720Z,102333.69
2023-02-09T08:44:01.573Z,102338.06
2023-02-09T08:46:28.825Z,102338.72
2023-02-09T08:48:55.686Z,102337.88
2023-02-09T08:51:22.486Z,102329.00
2023-02-09T08:53:52.684Z,102323.56
2023-02-09T08:56:21.349Z,102329.16
2023-02-09T08:58:48.765Z,102323.66
2023-02-09T09:01:15.897Z,102321.13
2023-02-09T09:03:42.914Z,102331.19
2023-02-09T09:06:12.037Z,102321.47
2023-02-09T09:08:40.420Z,102326.41
2023-02-09T09:11:12.849Z,102325.44
2023-02-09T09:13:44.340Z,102319.78
2023-02-09T09:16:17.760Z,102324.84
2023-02-09T09:18:44.737Z,102321.00
2023-02-09T09:21:13.136Z,102317.13
2023-02-09T09:23:39.965Z,102316.06
2023-02-09T09:26:07.311Z,102316.09
2023-02-09T09:28:34.353Z,102322.31
2023-02-09T09:31:06.871Z,102316.63
2023-02-09T09:33:33.764Z,102319.50
2023-02-09T09:36:02.147Z,102315.28
2023-02-09T09:38:31.632Z,102315.94
2023-02-09T09:40:58.423Z,102318.03
2023-02-09T09:43:29.794Z,102326.53
2023-02-09T09:45:56.954Z,102322.59
2023-02-09T09:48:31.718Z,102317.31
2023-02-09T09:51:06.625Z,102311.72
2023-02-09T09:53:36.724Z,102313.44
2023-02-09T09:56:07.653Z,102318.13
2023-02-09T09:58:39.293Z,102304.41
2023-02-09T10:01:06.914Z,102313.50
2023-02-09T10:03:33.684Z,102317.03
2023-02-09T10:06:10.793Z,102310.03
2023-02-09T10:09:04.326Z,102298.56
2023-02-09T10:11:38.739Z,102298.56
2023-02-09T10:14:05.836Z,102294.69
2023-02-09T10:16:38.274Z,102296.66
2023-02-09T10:19:18.758Z,102291.81
2023-02-09T10:21:45.623Z,102280.47
2023-02-09T10:24:22.835Z,102288.56
2023-02-09T10:27:09.317Z,102282.56
2023-02-09T10:29:36.696Z,102279.63
2023-02-09T10:32:12.424Z,102279.34
2023-02-09T10:34:40.875Z,102279.19
2023-02-09T10:37:21.343Z,102277.03
2023-02-09T10:40:01.730Z,102271.50
2023-02-09T10:42:32.758Z,102264.44
2023-02-09T10:45:08.106Z,102261.41
2023-02-09T10:47:35.143Z,102254.94
2023-02-09T10:50:12.615Z,102254.75
2023-02-09T10:52:59.213Z,102251.19
2023-02-09T10:55:41.598Z,102247.69
2023-02-09T10:58:11.532Z,102238.41
2023-02-09T11:00:50.090Z,102237.63
2023-02-09T11:03:21.144Z,102222.94
2023-02-09T11:05:56.942Z,102222.56
2023-02-09T11:08:27.077Z,102222.78
2023-02-09T11:11:06.085Z,102227.72
2023-02-09T11:13:34.470Z,102226.63
2023-02-09T11:16:38.082Z,102220.25
2023-02-09T11:19:23.930Z,102212.09
2023-02-09T11:22:40.725Z,102205.91
2023-02-09T11:25:28.892Z,102199.09
2023-02-09T11:28:20.560Z,102203.00
2023-02-09T11:31:15.036Z,102204.56
2023-02-09T11:33:47.867Z,102201.50
2023-02-09T11:36:33.236Z,102191.44
2023-02-09T11:39:05.585Z,102195.84
2023-02-09T11:41:57.413Z,102188.16
2023-02-09T11:44:41.584Z,102183.94
2023-02-09T11:47:14.933Z,102189.63
2023-02-09T11:49:49.457Z,102175.13
2023-02-09T11:52:40.418Z,102172.41
2023-02-09T11:55:27.473Z,102176.56
2023-02-09T11:58:08.779Z,102174.22
2023-02-09T12:00:57.752Z,102171.13
2023-02-09T12:03:28.672Z,102165.63
2023-02-09T12:05:56.871Z,102158.84
2023-02-09T12:08:38.556Z,102158.97
2023-02-09T12:11:26.554Z,102141.00
2023-02-09T12:13:58.958Z,102143.66
2023-02-09T12:16:33.753Z,102133.41
2023-02-09T12:19:02.471Z,102131.75
2023-02-09T12:21:35.328Z,102129.66
2023-02-09T12:24:27.721Z,102139.47
2023-02-09T12:26:58.118Z,102131.22
2023-02-09T12:29:40.444Z,102118.50
2023-02-09T12:32:08.130Z,102110.28
2023-02-09T12:34:49.778Z,102106.50
2023-02-09T12:37:36.974Z,102103.22
2023-02-09T12:40:03.903Z,102106.69
2023-02-09T12:42:42.261Z,102087.09
2023-02-09T12:45:30.643Z,102082.13
2023-02-09T12:48:07.684Z,102083.06
2023-02-09T12:50:55.488Z,102081.03
2023-02-09T12:53:26.361Z,102071.88
2023-02-09T12:56:10.862Z,102080.94
2023-02-09T12:58:49.634Z,102077.72
2023-02-09T13:01:18.195Z,102061.41
2023-02-09T13:03:55.602Z,102066.97
2023-02-09T13:06:28.511Z,102062.72
2023-02-09T13:08:57.108Z,102061.06
2023-02-09T13:11:31.558Z,102056.78
2023-02-09T13:14:07.461Z,102069.13
2023-02-09T13:16:55.080Z,102059.28
2023-02-09T13:19:45.997Z,102070.06
2023-02-09T13:22:25.366Z,102060.97
2023-02-09T13:25:01.581Z,102056.13
2023-02-09T13:27:30.714Z,102054.22
2023-02-09T13:29:59.371Z,102052.28
2023-02-09T13:32:53.495Z,102049.56
2023-02-09T13:35:27.651Z,102052.84
2023-02-09T13:37:59.281Z,102034.78
2023-02-09T13:40:29.452Z,102045.16
2023-02-09T13:43:14.928Z,102052.94
2023-02-09T13:45:50.019Z,102030.69
2023-02-09T13:48:35.891Z,102035.09
2023-02-09T13:51:18.928Z,102032.31
2023-02-09T13:54:00.680Z,102029.03
2023-02-09T13:56:28.840Z,102023.38
2023-02-09T13:58:56.852Z,102027.56
2023-02-09T14:01:35.323Z,102030.13
2023-02-09T14:04:02.094Z,102031.38
2023-02-09T14:06:37.881Z,102030.72
2023-02-09T14:09:11.898Z,102036.88
2023-02-09T14:11:48.603Z,102031.22
2023-02-09T14:14:22.375Z,102036.34
2023-02-09T14:17:23.759Z,102026.81
2023-02-09T14:19:52.427Z,102030.84
2023-02-09T14:22:37.539Z,102023.38
2023-02-09T14:25:23.215Z,102029.81
2023-02-09T14:27:50.083Z,102027.53
2023-02-09T14:30:25.815Z,102032.03
2023-02-09T14:32:55.399Z,102033.56
2023-02-09T14:35:36.650Z,102019.88
2023-02-09T14:38:03.967Z,102020.38
2023-02-09T14:40:37.216Z,102027.94
2023-02-09T14:43:06.916Z,102018.25
2023-02-09T14:45:39.753Z,102016.38
2023-02-09T14:48:25.423Z,102023.78
2023-02-09T14:50:57.900Z,102021.34
2023-02-09T14:53:27.971Z,102016.41
2023-02-09T14:55:56.025Z,102023.56
2023-02-09T14:58:31.307Z,102019.50
2023-02-09T15:01:00.933Z,102025.19
2023-02-09T15:03:28.216Z,102024.44
2023-02-09T15:06:05.852Z,102028.03
2023-02-09T15:08:37.016Z,102025.38
2023-02-09T15:11:26.506Z,102026.28
2023-02-09T15:13:58.706Z,102035.06
2023-02-09T15:16:25.652Z,102030.69
2023-02-09T15:18:53.517Z,102029.03
2023-02-09T15:21:20.287Z,102029.03
2023-02-09T15:23:47.146Z,102033.34
2023-02-09T15:26:18.644Z,102035.25
2023-02-09T15:28:45.586Z,102028.31
2023-02-09T15:31:16.379Z,102029.38
2023-02-09T15:33:43.268Z,102024.66
2023-02-09T15:36:20.334Z,102024.16
2023-02-09T15:38:47.993Z,102023.91
2023-02-09T15:41:35.974Z,102024.25
2023-02-09T15:44:36.484Z,102025.34
2023-02-09T15:47:23.379Z,102020.34
2023-02-09T15:49:50.590Z,102027.47
2023-02-09T15:52:18.749Z,102029.38
2023-02-09T15:54:45.904Z,102028.84
2023-02-09T15:57:14.374Z,102024.88
2023-02-09T15:59:41.575Z,102037.97
2023-02-09T16:02:16.057Z,102027.44
2023-02-09T16:04:43.205Z,102035.22
2023-02-09T16:07:16.966Z,102027.94
2023-02-09T16:09:44.013Z,102028.13
2023-02-09T16:12:12.092Z,102025.81
2023-02-09T16:14:39.109Z,102024.34
2023-02-09T16:17:05.888Z,102034.72
2023-02-09T16:19:32.715Z,102029.00
2023-02-09T16:22:03.184Z,102026.44
2023-02-09T16:24:45.627Z,102031.97
2023-02-09T16:27:21.717Z,102029.34
2023-02-09T16:29:48.540Z,102029.34
2023-02-09T16:32:19.766Z,102031.16
2023-02-09T16:34:46.705Z,102026.19
2023-02-09T16:37:16.297Z,102032.31
2023-02-09T16:39:43.880Z,102037.34
2023-02-09T16:42:13.121Z,102025.69
2023-02-09T16:44:40.089Z,102024.88
2023-02-09T16:47:26.072Z,102036.38
2023-02-09T16:50:02.867Z,102033.13
2023-02-09T16:52:30.901Z,102027.97
2023-02-09T16:55:00.409Z,102022.91
2023-02-09T16:57:29.097Z,102024.56
2023-02-09T16:59:56.139Z,102023.81
2023-02-09T17:02:43.260Z,102025.84
2023-02-09T17:05:22.831Z,102031.19
2023-02-09T17:07:55.328Z,102025.91
2023-02-09T17:10:25.424Z,102024.50
2023-02-09T17:12:53.751Z,102027.25
2023-02-09T17:15:30.005Z,102028.22
2023-02-09T17:18:03.516Z,102028.47
2023-02-09T17:20:38.232Z,102028.72
2023-02-09T17:23:05.438Z,102027.19
2023-02-09T17:25:32.381Z,102023.09
2023-02-09T17:27:59.232Z,102023.25
2023-02-09T17:30:26.159Z,102026.72
2023-02-09T17:33:00.072Z,102018.44
2023-02-09T17:35:53.085Z,102010.03
2023-02-09T17:38:22.819Z,102011.22
2023-02-09T17:40:51.057Z,102010.25
2023-02-09T17:43:18.259Z,102013.69
2023-02-09T17:45:51.186Z,102013.03
2023-02-09T17:48:27.431Z,102014.34
2023-02-09T17:50:58.016Z,102024.72
2023-02-09T17:53:27.741Z,102014.81
2023-02-09T17:55:56.443Z,102020.84
2023-02-09T17:58:23.824Z,102017.50
2023-02-09T18:00:53.199Z,102016.94
2023-02-09T18:03:22.387Z,102017.09
2023-02-09T18:05:55.778Z,102020.56
2023-02-09T18:08:22.935Z,102025.09
2023-02-09T18:10:49.966Z,102023.69
2023-02-09T18:13:18.702Z,102019.56
2023-02-09T18:15:46.377Z,102015.41
2023-02-09T18:18:13.406Z,102017.38
2023-02-09T18:20:41.112Z,102011.56
2023-02-09T18:23:08.973Z,102015.19
2023-02-09T18:25:38.133Z,102009.41
2023-02-09T18:28:07.015Z,102012.03
2023-02-09T18:30:37.098Z,102020.59
2023-02-09T18:33:04.889Z,102019.78
2023-02-09T18:35:36.298Z,102013.16
2023-02-09T18:38:05.371Z,102011.44
2023-02-09T18:40:32.427Z,102007.25
2023-02-09T18:43:01.137Z,102009.72
2023-02-09T18:45:28.474Z,102003.03
2023-02-09T18:47:55.408Z,102009.72
2023-02-09T18:50:24.636Z,101997.69
2023-02-09T18:52:54.213Z,102007.00
2023-02-09T18:55:24.519Z,102001.97
2023-02-09T18:57:52.674Z,102000.41
2023-02-09T19:00:20.508Z,102001.06
2023-02-09T19:02:53.490Z,101996.03
2023-02-09T19:05:20.540Z,102003.63
2023-02-09T19:07:47.462Z,101992.50
2023-02-09T19:10:20.070Z,101996.94
2023-02-09T19:12:47.098Z,101995.50
2023-02-09T19:15:14.862Z,101998.97
2023-02-09T19:17:42.228Z,102009.19
2023-02-09T19:20:15.810Z,102012.72
2023-02-09T19:22:44.531Z,102012.03
2023-02-09T19:25:11.337Z,102010.53
2023-02-09T19:27:39.676Z,102014.13
2023-02-09T19:30:06.980Z,102003.94
2023-02-09T19:32:33.808Z,102004.84
2023-02-09T19:35:02.121Z,102008.44
2023-02-09T19:37:31.152Z,102002.63
2023-02-09T19:40:04.920Z,102006.91
2023-02-09T19:42:32.629Z,102002.94
2023-02-09T19:45:00.374Z,102006.41
2023-02-09T19:47:28.925Z,102005.72
2023-02-09T19:49:57.903Z,102003.91
2023-02-09T19:52:26.834Z,102011.63
2023-02-09T19:54:54.151Z,102003.00
2023-02-09T19:57:22.317Z,102003.22
2023-02-09T19:59:49.172Z,102003.06
2023-02-09T20:02:17.238Z,101999.63
2023-02-09T20:04:45.977Z,102008.09
2023-02-09T20:07:14.012Z,102004.88
2023-02-09T20:09:42.294Z,102006.75
2023-02-09T20:12:09.016Z,102005.84
2023-02-09T20:14:37.094Z,102002.25
2023-02-09T20:17:06.539Z,101997.06
2023-02-09T20:19:37.124Z,101993.75
2023-02-09T20:22:04.299Z,101988.75
2023-02-09T20:24:31.255Z,101983.78
2023-02-09T20:26:58.132Z,101994.19
2023-02-09T20:29:25.147Z,101989.09
2023-02-09T20:31:51.969Z,101980.63
2023-02-09T20:34:18.941Z,101968.63
2023-02-09T20:36:48.184Z,101966.66
2023-02-09T20:39:16.343Z,101970.13
2023-02-09T20:42:06.736Z,101965.78
2023-02-09T20:44:52.972Z,101959.75
2023-02-09T20:47:19.999Z,101964.78
2023-02-09T20:49:47.152Z,101969.81
2023-02-09T20:52:16.410Z,101960.50
2023-02-09T20:54:43.215Z,101967.25
2023-02-09T20:57:12.627Z,101964.72
2023-02-09T20:59:39.470Z,101962.16
2023-02-09T21:02:06.317Z,101958.78
2023-02-09T21:04:33.208Z,101958.84
2023-02-09T21:07:00.572Z,101962.16
2023-02-09T21:09:28.343Z,101960.50
2023-02-09T21:11:55.497Z,101963.06
2023-02-09T21:14:32.446Z,101956.38
2023-02-09T21:17:05.966Z,101954.81
2023-02-09T21:19:34.529Z,101959.84
2023-02-09T21:22:01.414Z,101952.25
2023-02-09T21:24:28.275Z,101951.66
2023-02-09T21:26:55.084Z,101951.72
2023-02-09T21:29:23.777Z,101958.56
2023-02-09T21:31:52.064Z,101956.91
2023-02-09T21:34:19.719Z,101956.06
2023-02-09T21:36:46.620Z,101941.44
2023-02-09T21:39:16.076Z,101953.44
2023-02-09T21:42:02.612Z,101949.16
2023-02-09T21:44:32.114Z,101947.44
2023-02-09T21:47:00.555Z,101950.91
2023-02-09T21:49:27.318Z,101951.88
2023-02-09T21:51:54.113Z,101962.16
2023-02-09T21:54:20.972Z,101948.50
2023-02-09T21:56:47.901Z,101946.09
2023-02-09T21:59:14.742Z,101935.13
2023-02-09T22:01:42.566Z,101930.91
2023-02-09T22:04:09.660Z,101940.38
2023-02-09T22:06:36.510Z,101939.63
2023-02-09T22:09:06.288Z,101937.31
2023-02-09T22:11:33.536Z,101943.38
2023-02-09T22:14:00.563Z,101944.13
2023-02-09T22:16:27.360Z,101947.44
2023-02-09T22:18:54.193Z,101949.25
2023-02-09T22:21:21.061Z,101961.09
2023-02-09T22:23:48.131Z,101960.41
2023-02-09T22:26:15.297Z,101963.31
2023-02-09T22:28:42.722Z,101974.34
2023-02-09T22:31:12.727Z,101973.69
2023-02-09T22:33:39.740Z,101980.66
2023-02-09T22:36:11.396Z,101980.72
2023-02-09T22:38:38.234Z,101981.56
2023-02-09T22:41:21.408Z,101971.56
2023-02-09T22:43:53.671Z,101969.00
2023-02-09T22:46:25.436Z,101962.25
2023-02-09T22:48:57.760Z,101967.50
2023-02-09T22:51:27.018Z,101963.44
2023-02-09T22:53:54.252Z,101971.22
2023-02-09T22:56:21.147Z,101971.22
2023-02-09T22:58:48.075Z,101973.03
2023-02-09T23:01:15.477Z,101976.47
2023-02-09T23:03:42.442Z,101986.00
2023-02-09T23:06:16.778Z,101988.72
2023-02-09T23:08:43.770Z,101985.28
2023-02-09T23:11:16.757Z,101977.84
2023-02-09T23:13:45.616Z,101979.75
2023-02-09T23:16:16.530Z,101971.28
2023-02-09T23:18:52.447Z,101972.06
2023-02-09T23:21:20.772Z,101972.19
2023-02-09T23:23:47.729Z,101962.28
2023-02-09T23:26:16.008Z,101958.09
2023-02-09T23:28:42.955Z,101967.47
2023-02-09T23:31:13.101Z,101965.84
2023-02-09T23:33:40.256Z,101967.78
2023-02-09T23:36:09.198Z,101962.88
2023-02-09T23:38:36.734Z,101966.38
2023-02-09T23:41:08.488Z,101961.28
2023-02-09T23:43:36.029Z,101952.66
2023-02-09T23:46:04.269Z,101947.63
2023-02-09T23:48:31.647Z,101950.31
2023-02-09T23:51:06.393Z,101950.47
2023-02-09T23:53:34.164Z,101944.63
2023-02-09T23:56:04.106Z,101946.38
2023-02-09T23:58:39.147Z,101944.88
